EGNT

Newcastle Airport

Newcastle, United Kingdom
METAR EGNT 181250Z 17005KT 120V220 CAVOK 03/M03 Q1012
Observed Flight Rules
Jan-18 @ 12:50 UTC (an hour ago) Visual Flight Rules
Wind Visibility Clouds
170° at 5 knots 10,000+ meters
  • Clear skies
Temperatures Readings
Current 3°C / 37°F
Dewpoint -3°C / 27°F
Humidity 65%
Altimeter 29.88" Hg
Pressure 1011.92 hPa
Elevation 81
METAR EGNT 181250Z 17005KT 120V220 CAVOK 03/M03 Q1012
Observed Flight Rules
Jan-18 @ 12:50 UTC
(an hour ago)
VFR
Wind Visibility
170° at 5 knots 10,000+ meters
Clouds
  • Clear skies
Temperature Dewpoint
3°C / 37°F -3°C / 27°F
Humidity Altimeter Pressure
65% 29.88" Hg 1011.92 hPa